createdAt,value
2022-10-28T00:07:46.330Z,987.9
2022-10-28T00:22:20.675Z,987.7
2022-10-28T00:37:01.496Z,987.6
2022-10-28T00:51:39.298Z,987.4
2022-10-28T01:06:16.846Z,987.3
2022-10-28T01:20:48.683Z,987.1
2022-10-28T01:35:22.309Z,987.3
2022-10-28T01:49:57.482Z,987.3
2022-10-28T02:04:31.929Z,987
2022-10-28T02:19:10.020Z,986.9
2022-10-28T02:33:48.847Z,986.9
2022-10-28T02:48:25.111Z,986.9
2022-10-28T03:02:55.998Z,986.7
2022-10-28T03:17:30.813Z,986.9
2022-10-28T03:32:03.894Z,986.9
2022-10-28T03:46:38.102Z,986.5
2022-10-28T04:01:12.114Z,986.4
2022-10-28T04:15:46.078Z,986.5
2022-10-28T04:30:26.358Z,986.4
2022-10-28T04:45:05.032Z,986.3
2022-10-28T04:59:35.000Z,986.2
2022-10-28T05:14:09.601Z,986.3
2022-10-28T05:28:45.416Z,986.4
2022-10-28T05:43:18.601Z,986.5
2022-10-28T05:57:59.343Z,986.5
2022-10-28T06:27:05.173Z,986.5
2022-10-28T06:41:41.139Z,986.8
2022-10-28T06:56:18.745Z,986.7
2022-10-28T07:10:53.777Z,986.9
2022-10-28T07:25:29.095Z,987
2022-10-28T07:40:04.998Z,987
2022-10-28T07:54:38.380Z,987
2022-10-28T08:09:12.283Z,987
2022-10-28T08:23:48.837Z,987.1
2022-10-28T08:38:25.976Z,987
2022-10-28T08:53:01.705Z,986.9
2022-10-28T09:07:42.812Z,986.7
2022-10-28T09:22:21.709Z,986.8
2022-10-28T09:36:57.838Z,986.8
2022-10-28T09:51:31.763Z,986.6
2022-10-28T10:06:06.278Z,986.9
2022-10-28T10:20:42.301Z,986.9
2022-10-28T10:35:17.163Z,986.9
2022-10-28T10:49:52.678Z,986.9
2022-10-28T11:04:28.523Z,986.7
2022-10-28T11:19:03.706Z,986.4
2022-10-28T11:33:40.095Z,986.3
2022-10-28T11:48:13.454Z,986.2
2022-10-28T12:02:57.811Z,986.1
2022-10-28T12:17:32.327Z,985.9
2022-10-28T12:32:03.297Z,985.9
2022-10-28T12:46:39.222Z,985.8
2022-10-28T13:01:17.777Z,985.7
2022-10-28T13:15:50.826Z,985.6
2022-10-28T13:30:25.001Z,985.6
2022-10-28T13:45:00.561Z,985.6
2022-10-28T13:59:35.465Z,985.6
2022-10-28T14:14:09.718Z,985.7
2022-10-28T14:28:44.666Z,985.8
2022-10-28T14:43:19.918Z,985.8
2022-10-28T14:57:58.807Z,985.9
2022-10-28T15:12:35.943Z,986.1
2022-10-28T15:27:07.660Z,986.4
2022-10-28T15:41:41.909Z,986.5
2022-10-28T15:56:15.294Z,986.6
2022-10-28T16:10:49.655Z,986.8
2022-10-28T16:25:29.010Z,986.9
2022-10-28T16:40:50.142Z,987
2022-10-28T16:55:13.445Z,987.3
2022-10-28T17:09:51.008Z,987.3
2022-10-28T17:24:24.274Z,987.3
2022-10-28T17:38:56.088Z,987.5
2022-10-28T17:53:30.034Z,987.4
2022-10-28T18:08:04.961Z,987.3
2022-10-28T18:22:48.742Z,987.4
2022-10-28T18:37:23.782Z,987.6
2022-10-28T18:51:55.127Z,987.8
2022-10-28T19:06:28.669Z,987.9
2022-10-28T19:21:03.538Z,987.8
2022-10-28T19:35:36.883Z,988
2022-10-28T19:50:11.393Z,988.2
2022-10-28T20:04:47.750Z,988.1
2022-10-28T20:19:25.725Z,988.2
2022-10-28T20:34:01.996Z,988.5
2022-10-28T20:48:33.935Z,988.8
2022-10-28T21:03:09.367Z,988.9
2022-10-28T21:17:43.068Z,989
2022-10-28T21:32:17.305Z,989
2022-10-28T21:46:51.142Z,989.1
2022-10-28T22:01:31.756Z,989
2022-10-28T22:16:09.027Z,988.9
2022-10-28T22:30:39.296Z,989
2022-10-28T22:45:13.958Z,989.1
2022-10-28T22:59:54.002Z,989
2022-10-28T23:14:26.450Z,989
2022-10-28T23:29:06.606Z,989.1
2022-10-28T23:43:36.782Z,989.1
2022-10-28T23:58:12.439Z,989.1
